Time;durP1;ratioP1;P1;durP2;ratioP2;P2;SDS_P1;SDS_P2;PMS_P1;PMS_P2;Temp;Humidity;BMP_temperature;BMP_pressure;BME280_temperature;BME280_humidity;BME280_pressure;Samples;Min_cycle;Max_cycle;Signal;HPM_P1;HPM_P2
2021/03/06 04:03:20;;;;;;;25.77;13.38;;;;;;;-0.44;100.00;100161.06;1770689;78;21195;-64
2021/03/06 04:05:49;;;;;;;26.85;15.75;;;;;;;-0.45;100.00;100167.13;1791399;78;21395;-61
2021/03/06 04:08:18;;;;;;;21.90;12.70;;;;;;;-0.46;100.00;100169.78;1869056;76;21182;-61
2021/03/06 04:10:46;;;;;;;21.07;13.20;;;;;;;-0.46;100.00;100176.19;1862308;76;21596;-60
2021/03/06 04:13:18;;;;;;;18.65;11.20;;;;;;;-0.46;100.00;100177.00;1860078;76;20985;-61
2021/03/06 04:15:46;;;;;;;18.92;9.85;;;;;;;-0.43;100.00;100183.17;1861036;75;21209;-60
2021/03/06 04:18:15;;;;;;;17.35;9.78;;;;;;;-0.42;100.00;100182.70;1869603;76;21600;-60
2021/03/06 04:20:44;;;;;;;16.20;10.30;;;;;;;-0.42;100.00;100181.42;1865722;76;21190;-61
2021/03/06 04:23:13;;;;;;;17.12;10.82;;;;;;;-0.41;100.00;100181.33;1793574;79;21466;-60
2021/03/06 04:25:42;;;;;;;16.87;9.90;;;;;;;-0.41;100.00;100178.77;1788647;79;21185;-62
2021/03/06 04:28:11;;;;;;;14.33;8.93;;;;;;;-0.39;100.00;100188.42;1864177;76;21091;-60
2021/03/06 04:30:39;;;;;;;19.57;10.75;;;;;;;-0.39;100.00;100188.89;1871202;76;21124;-60
2021/03/06 04:33:09;;;;;;;18.77;11.00;;;;;;;-0.36;100.00;100203.56;1861016;76;21031;-65
2021/03/06 04:35:38;;;;;;;17.37;10.88;;;;;;;-0.35;100.00;100203.91;1869964;76;21188;-60
2021/03/06 04:38:08;;;;;;;15.70;9.60;;;;;;;-0.35;100.00;100192.38;1867068;76;21099;-60
2021/03/06 04:40:36;;;;;;;16.62;9.38;;;;;;;-0.35;100.00;100193.66;1849719;75;21068;-60
2021/03/06 04:43:05;;;;;;;17.60;10.23;;;;;;;-0.37;100.00;100196.00;1866793;76;21186;-65
2021/03/06 04:45:33;;;;;;;15.08;9.78;;;;;;;-0.36;100.00;100212.99;1860505;76;21587;-60
2021/03/06 04:48:02;;;;;;;17.07;9.88;;;;;;;-0.38;100.00;100218.24;1861695;76;21139;-60
2021/03/06 04:50:31;;;;;;;16.23;11.38;;;;;;;-0.39;100.00;100228.58;1862782;76;21156;-61
2021/03/06 04:52:59;;;;;;;17.95;10.48;;;;;;;-0.39;100.00;100248.60;1864113;76;20983;-65
2021/03/06 04:55:28;;;;;;;16.17;9.68;;;;;;;-0.37;100.00;100235.23;1863840;76;21180;-61
2021/03/06 04:57:58;;;;;;;16.87;10.10;;;;;;;-0.36;100.00;100239.42;1795796;79;20985;-62
2021/03/06 05:00:26;;;;;;;16.40;9.95;;;;;;;-0.34;100.00;100241.85;1785864;79;20995;-63
2021/03/06 05:02:55;;;;;;;17.62;10.32;;;;;;;-0.33;100.00;100246.07;1868565;76;20890;-65
2021/03/06 05:05:24;;;;;;;15.08;9.30;;;;;;;-0.33;100.00;100255.84;1854036;76;21443;-61
2021/03/06 05:07:52;;;;;;;16.85;9.55;;;;;;;-0.32;100.00;100256.19;1848376;76;21196;-62
2021/03/06 05:10:23;;;;;;;18.25;10.78;;;;;;;-0.30;100.00;100254.81;1853467;76;21583;-63
2021/03/06 05:12:51;;;;;;;16.57;9.68;;;;;;;-0.27;100.00;100257.94;1849406;75;21523;-66
2021/03/06 05:15:21;;;;;;;17.95;9.75;;;;;;;-0.24;100.00;100249.22;1849792;76;21140;-62
2021/03/06 05:17:50;;;;;;;14.40;9.55;;;;;;;-0.19;100.00;100252.27;1846510;75;21576;-61
2021/03/06 05:20:18;;;;;;;16.73;10.20;;;;;;;-0.13;100.00;100254.36;1849415;75;21721;-61
2021/03/06 05:22:47;;;;;;;17.50;10.35;;;;;;;-0.08;100.00;100261.70;1867114;75;21106;-62
2021/03/06 05:25:16;;;;;;;15.05;9.90;;;;;;;-0.04;100.00;100263.09;1859321;76;21142;-60
2021/03/06 05:27:45;;;;;;;15.35;7.78;;;;;;;-0.01;100.00;100263.69;1872846;76;21111;-61
2021/03/06 05:30:14;;;;;;;15.50;9.38;;;;;;;0.02;100.00;100272.91;1848443;76;21024;-61
2021/03/06 05:32:42;;;;;;;15.30;8.53;;;;;;;0.00;100.00;100278.63;1871509;76;21175;-61
2021/03/06 05:35:12;;;;;;;15.63;9.08;;;;;;;-0.07;100.00;100281.29;1860950;76;21053;-61
2021/03/06 05:37:40;;;;;;;12.95;8.38;;;;;;;-0.10;100.00;100291.29;1871832;76;21538;-62
2021/03/06 05:40:10;;;;;;;11.08;6.72;;;;;;;-0.12;100.00;100285.92;1850332;76;21088;-61
2021/03/06 05:42:38;;;;;;;9.75;6.33;;;;;;;-0.15;100.00;100286.98;1874178;76;21091;-61
2021/03/06 05:45:08;;;;;;;12.78;7.30;;;;;;;-0.19;100.00;100293.27;1853843;76;22939;-60
2021/03/06 05:47:37;;;;;;;12.33;7.15;;;;;;;-0.22;100.00;100299.89;1861349;76;20988;-60
2021/03/06 05:50:07;;;;;;;10.93;6.47;;;;;;;-0.22;100.00;100308.04;1839460;76;21051;-61
2021/03/06 05:52:35;;;;;;;10.08;6.60;;;;;;;-0.18;100.00;100309.45;1844212;76;21554;-62
2021/03/06 05:55:05;;;;;;;10.75;6.75;;;;;;;-0.12;100.00;100311.53;1863807;76;21087;-60
2021/03/06 05:57:34;;;;;;;10.70;6.42;;;;;;;-0.08;100.00;100315.50;1860387;76;21343;-60
2021/03/06 06:00:04;;;;;;;11.73;7.40;;;;;;;-0.03;100.00;100312.16;1857263;76;21121;-61
2021/03/06 06:02:34;;;;;;;13.58;8.40;;;;;;;0.03;100.00;100314.25;1857975;76;21522;-63
2021/03/06 06:05:03;;;;;;;11.78;7.75;;;;;;;0.07;100.00;100316.93;1848013;75;21198;-61
2021/03/06 06:07:32;;;;;;;10.63;6.22;;;;;;;0.11;100.00;100317.52;1858837;76;20978;-61
2021/03/06 06:10:00;;;;;;;8.08;4.70;;;;;;;0.11;100.00;100325.21;1860127;76;22316;-61
2021/03/06 06:12:28;;;;;;;7.83;4.62;;;;;;;0.04;100.00;100322.31;1867215;76;21510;-60
2021/03/06 06:14:57;;;;;;;8.10;3.87;;;;;;;-0.05;100.00;100316.56;1860719;76;21090;-63
2021/03/06 06:17:25;;;;;;;6.70;3.98;;;;;;;-0.02;100.00;100329.16;1871978;76;21164;-60
2021/03/06 06:19:54;;;;;;;7.35;4.40;;;;;;;0.06;100.00;100331.97;1862752;76;21616;-61
2021/03/06 06:22:24;;;;;;;6.95;4.03;;;;;;;0.11;100.00;100319.62;1858786;76;21200;-61
2021/03/06 06:24:52;;;;;;;5.95;3.65;;;;;;;0.16;100.00;100315.45;1860817;76;20977;-62
2021/03/06 06:27:31;;;;;;;4.72;2.47;;;;;;;0.13;100.00;100329.77;1853776;76;21072;-61
2021/03/06 06:30:01;;;;;;;3.85;1.85;;;;;;;0.09;100.00;100334.78;1826965;78;20992;-60
2021/03/06 06:32:45;;;;;;;4.45;1.82;;;;;;;0.05;100.00;100336.75;1866734;76;21193;-61
2021/03/06 06:35:16;;;;;;;3.33;1.30;;;;;;;-0.01;100.00;100342.31;1863912;76;22212;-62
2021/03/06 06:38:06;;;;;;;4.00;1.70;;;;;;;-0.04;100.00;100342.53;1861403;76;20933;-63
2021/03/06 06:40:37;;;;;;;4.45;1.90;;;;;;;-0.04;100.00;100334.41;1868554;76;21107;-62
2021/03/06 06:43:22;;;;;;;;;;;;;;;-0.02;100.00;100329.16;1865460;76;21118;-63
2021/03/06 06:45:50;;;;;;;3.08;1.40;;;;;;;0.04;100.00;100312.06;1854846;76;20206;-62
2021/03/06 06:48:20;;;;;;;3.00;1.30;;;;;;;0.13;100.00;100331.86;1855728;76;22260;-63
2021/03/06 06:50:49;;;;;;;3.10;1.32;;;;;;;0.23;100.00;100338.42;1851376;76;20982;-65
2021/03/06 06:53:27;;;;;;;2.80;1.30;;;;;;;0.32;100.00;100333.06;1850838;76;21613;-67
2021/03/06 06:55:55;;;;;;;2.55;1.22;;;;;;;0.41;100.00;100330.60;1865242;76;21525;-63
2021/03/06 06:58:34;;;;;;;3.55;1.65;;;;;;;0.48;100.00;100330.49;1796635;79;21601;-62
2021/03/06 07:01:30;;;;;;;2.67;1.30;;;;;;;0.63;100.00;100327.70;1866922;76;21951;-66
2021/03/06 07:04:07;;;;;;;2.72;1.30;;;;;;;0.86;100.00;100329.78;1868780;76;21117;-62
2021/03/06 07:06:36;;;;;;;2.45;1.10;;;;;;;1.16;100.00;100320.97;1867548;76;20991;-66
2021/03/06 07:09:14;;;;;;;3.35;1.45;;;;;;;1.46;100.00;100306.64;1873976;76;21962;-63
2021/03/06 07:11:43;;;;;;;3.42;1.65;;;;;;;1.76;100.00;100308.96;1867407;76;21528;-64
2021/03/06 07:14:12;;;;;;;3.90;1.92;;;;;;;2.21;100.00;100303.55;1878312;76;21196;-64
2021/03/06 07:16:56;;;;;;;3.02;1.55;;;;;;;2.55;100.00;100305.39;1867507;76;21000;-64
2021/03/06 07:19:29;;;;;;;2.50;1.22;;;;;;;2.86;100.00;100299.72;1863055;75;21066;-64
2021/03/06 07:21:58;;;;;;;3.70;1.65;;;;;;;3.34;100.00;100301.55;1871786;76;20991;-66
2021/03/06 07:24:28;;;;;;;2.70;1.30;;;;;;;3.92;100.00;100302.80;1872049;76;21491;-66
2021/03/06 07:26:57;;;;;;;2.80;1.20;;;;;;;4.40;100.00;100299.27;1873662;76;21320;-66
2021/03/06 07:29:26;;;;;;;4.28;1.52;;;;;;;4.39;100.00;100294.59;1801306;79;21239;-65
2021/03/06 07:31:56;;;;;;;2.45;1.20;;;;;;;4.11;100.00;100290.33;1872878;75;21430;-67
2021/03/06 07:34:30;;;;;;;2.90;1.27;;;;;;;3.89;100.00;100291.46;1871854;76;20999;-70
2021/03/06 07:37:05;;;;;;;4.83;1.30;;;;;;;3.87;100.00;100290.80;1871246;75;21051;-71
2021/03/06 07:39:43;;;;;;;2.67;1.10;;;;;;;3.87;100.00;100288.22;1875495;76;21362;-72
2021/03/06 07:42:55;;;;;;;2.75;1.00;;;;;;;3.84;100.00;100297.04;1877099;75;21166;-72
2021/03/06 07:45:26;;;;;;;2.45;1.10;;;;;;;3.84;100.00;100301.39;1697532;83;21151;-69
2021/03/06 07:48:09;;;;;;;2.47;1.00;;;;;;;3.77;100.00;100306.75;1733083;81;21191;-68
2021/03/06 07:50:43;;;;;;;2.20;1.00;;;;;;;3.58;100.00;100280.52;1724846;81;21482;-71
2021/03/06 07:53:13;;;;;;;2.92;1.20;;;;;;;3.32;100.00;100268.18;1730523;81;22896;-69
2021/03/06 07:55:42;;;;;;;3.67;0.80;;;;;;;3.05;100.00;100280.44;1730728;81;21588;-69
2021/03/06 07:58:18;;;;;;;3.40;1.30;;;;;;;2.77;100.00;100279.93;1733466;81;21219;-70
2021/03/06 08:00:57;;;;;;;3.12;0.90;;;;;;;2.70;100.00;100282.20;1734330;81;21670;-72
2021/03/06 08:03:35;;;;;;;2.15;0.93;;;;;;;2.82;100.00;100287.58;1730968;81;21173;-71
2021/03/06 08:06:07;;;;;;;3.12;0.88;;;;;;;3.10;100.00;100278.27;1735353;81;21193;-71
2021/03/06 08:08:42;;;;;;;;;;;;;;;3.36;100.00;100285.47;1701047;81;21115;-69
2021/03/06 08:11:15;;;;;;;1.55;0.70;;;;;;;3.58;100.00;100286.96;1733260;81;20226;-67
2021/03/06 08:13:51;;;;;;;1.45;0.40;;;;;;;3.82;100.00;100299.41;1731893;81;48131;-66
2021/03/06 08:16:30;;;;;;;2.20;0.90;;;;;;;4.00;100.00;100287.91;1733262;80;21744;-67
2021/03/06 08:19:13;;;;;;;2.20;0.93;;;;;;;4.25;100.00;100292.46;1731892;80;21588;-66
2021/03/06 08:21:49;;;;;;;1.52;0.60;;;;;;;4.47;100.00;100291.30;1731223;80;21575;-70
2021/03/06 08:24:22;;;;;;;2.50;0.80;;;;;;;4.53;100.00;100286.03;1729656;80;21598;-65
2021/03/06 08:27:05;;;;;;;1.67;0.68;;;;;;;4.31;100.00;100284.62;1731229;80;21120;-67
2021/03/06 08:29:41;;;;;;;2.80;0.70;;;;;;;4.12;100.00;100275.98;1697069;82;21158;-68
2021/03/06 08:32:13;;;;;;;3.70;0.93;;;;;;;3.99;100.00;100282.42;1729042;80;21220;-65
2021/03/06 08:34:49;;;;;;;1.70;0.70;;;;;;;3.79;100.00;100286.78;1698782;81;21206;-66
2021/03/06 08:37:24;;;;;;;2.35;0.72;;;;;;;3.70;100.00;100278.60;1715461;81;21057;-69
2021/03/06 08:40:05;;;;;;;3.30;0.80;;;;;;;3.53;100.00;100288.67;1702668;81;21661;-64
2021/03/06 08:42:41;;;;;;;2.65;1.22;;;;;;;3.39;100.00;100305.82;1714099;81;21805;-65
2021/03/06 08:45:27;;;;;;;4.90;2.10;;;;;;;3.34;100.00;100317.02;1719703;80;22110;-66
2021/03/06 08:47:58;;;;;;;3.17;0.82;;;;;;;3.50;100.00;100327.59;1721115;80;21604;-65
2021/03/06 08:50:27;;;;;;;4.15;1.55;;;;;;;3.70;100.00;100324.53;1726688;80;21267;-66
2021/03/06 08:52:59;;;;;;;2.12;0.90;;;;;;;3.88;100.00;100323.36;1755102;79;21530;-64
2021/03/06 08:55:31;;;;;;;;;;;;;;;4.15;100.00;100326.02;1759584;79;21291;-64
2021/03/06 08:58:02;;;;;;;2.35;1.00;;;;;;;4.31;100.00;100324.62;1762134;79;21371;-63
2021/03/06 09:00:35;;;;;;;2.15;0.90;;;;;;;4.44;100.00;100322.55;1729147;80;21180;-63
2021/03/06 09:03:19;;;;;;;2.33;1.10;;;;;;;4.55;100.00;100317.20;1752820;79;21184;-63
2021/03/06 09:05:50;;;;;;;3.40;1.92;;;;;;;4.62;100.00;100320.84;1762084;79;21157;-61
2021/03/06 09:08:21;;;;;;;2.17;1.02;;;;;;;4.75;100.00;100329.55;1760466;79;21065;-62
2021/03/06 09:10:52;;;;;;;2.40;0.88;;;;;;;4.97;100.00;100327.54;1765226;79;23079;-62
2021/03/06 09:13:23;;;;;;;2.37;0.95;;;;;;;5.11;100.00;100328.31;1764730;79;21081;-64
2021/03/06 09:15:57;;;;;;;3.08;1.02;;;;;;;5.10;100.00;100326.70;1765879;79;20985;-64
2021/03/06 09:18:28;;;;;;;1.77;0.82;;;;;;;5.12;100.00;100334.64;1760766;79;21132;-62
2021/03/06 09:20:59;;;;;;;4.03;1.97;;;;;;;5.23;100.00;100340.57;1743550;80;21093;-65
2021/03/06 09:23:35;;;;;;;4.10;1.90;;;;;;;5.36;100.00;100339.23;1752165;80;21200;-72
2021/03/06 09:26:13;;;;;;;3.25;1.50;;;;;;;5.48;100.00;100343.70;1754302;79;21764;-63
2021/03/06 09:28:41;;;;;;;3.80;1.00;;;;;;;5.47;100.00;100341.28;1727768;81;21503;-61
2021/03/06 09:31:16;;;;;;;2.75;1.27;;;;;;;5.19;100.00;100339.21;1753958;79;20942;-65
2021/03/06 09:33:45;;;;;;;4.53;1.40;;;;;;;5.03;100.00;100347.12;1759548;80;21260;-62
2021/03/06 09:36:15;;;;;;;6.03;3.00;;;;;;;4.79;100.00;100348.95;1757423;80;21544;-62
2021/03/06 09:38:55;;;;;;;4.83;2.08;;;;;;;4.55;100.00;100362.38;1762907;79;21132;-64
2021/03/06 09:41:34;;;;;;;8.40;3.95;;;;;;;4.11;100.00;100356.11;1756699;79;21161;-61
2021/03/06 09:44:04;;;;;;;5.53;2.10;;;;;;;3.64;100.00;100371.02;1764068;79;21160;-61
2021/03/06 09:46:33;;;;;;;5.80;2.47;;;;;;;3.34;100.00;100365.97;1767111;79;21167;-61
2021/03/06 09:49:09;;;;;;;4.08;2.22;;;;;;;3.15;100.00;100357.25;1770178;78;21200;-61
2021/03/06 09:51:51;;;;;;;6.05;2.00;;;;;;;3.10;100.00;100359.39;1763501;80;21041;-62
2021/03/06 09:54:21;;;;;;;4.50;2.10;;;;;;;3.07;100.00;100357.55;1794443;79;20925;-62
2021/03/06 09:56:56;;;;;;;6.15;2.58;;;;;;;3.17;100.00;100351.48;1763837;79;21043;-61
2021/03/06 09:59:26;;;;;;;5.10;2.42;;;;;;;3.35;100.00;100346.97;1762319;80;21132;-62
2021/03/06 10:01:54;;;;;;;4.72;2.40;;;;;;;3.45;100.00;100352.96;1797102;79;21203;-61
2021/03/06 10:04:24;;;;;;;4.08;2.50;;;;;;;3.45;100.00;100357.27;1772361;79;21049;-61
2021/03/06 10:06:54;;;;;;;6.28;3.25;;;;;;;3.42;100.00;100354.52;1761160;80;21156;-61
2021/03/06 10:09:23;;;;;;;6.67;3.47;;;;;;;3.36;100.00;100353.75;1795886;79;21201;-61
2021/03/06 10:11:55;;;;;;;7.95;4.25;;;;;;;3.34;100.00;100351.32;1763289;79;21260;-61
2021/03/06 10:14:26;;;;;;;6.92;3.67;;;;;;;3.37;100.00;100351.06;1761407;80;21372;-61
2021/03/06 10:16:56;;;;;;;4.60;2.45;;;;;;;3.38;100.00;100350.58;1762337;80;21017;-60
2021/03/06 10:19:28;;;;;;;5.00;2.50;;;;;;;3.37;100.00;100347.64;1792026;79;21098;-61
2021/03/06 10:22:04;;;;;;;4.47;2.55;;;;;;;3.40;100.00;100348.19;1790551;79;21019;-61
2021/03/06 10:25:04;;;;;;;4.20;2.25;;;;;;;3.53;100.00;100342.79;1792026;79;21189;-61
2021/03/06 10:27:43;;;;;;;4.37;2.22;;;;;;;3.71;100.00;100351.11;1792422;79;21195;-62
2021/03/06 10:30:25;;;;;;;3.80;1.90;;;;;;;3.74;100.00;100343.92;1786751;79;21565;-62
2021/03/06 10:33:00;;;;;;;5.95;2.00;;;;;;;3.70;100.00;100341.28;1765745;79;21043;-61
2021/03/06 10:35:43;;;;;;;5.87;2.80;;;;;;;3.70;100.00;100335.31;1763492;80;21130;-68
2021/03/06 10:38:28;;;;;;;7.22;2.90;;;;;;;3.68;100.00;100342.39;1765032;79;21114;-62
2021/03/06 10:40:58;;;;;;;4.92;2.37;;;;;;;3.61;100.00;100333.90;1734133;81;21297;-62
2021/03/06 10:43:40;;;;;;;3.92;1.80;;;;;;;3.63;100.00;100326.83;1761119;80;21191;-63
2021/03/06 10:46:11;;;;;;;3.87;1.82;;;;;;;3.72;100.00;100332.14;1766772;79;20918;-62
2021/03/06 10:48:40;;;;;;;3.20;1.62;;;;;;;3.94;100.00;100331.84;1696943;82;21093;-62
2021/03/06 10:51:09;;;;;;;3.83;1.50;;;;;;;4.19;100.00;100330.91;1763168;78;21167;-64
2021/03/06 10:53:38;;;;;;;4.22;1.57;;;;;;;4.37;100.00;100317.61;1768109;78;21314;-62
2021/03/06 10:56:19;;;;;;;3.72;1.40;;;;;;;4.52;100.00;100317.97;1764012;78;21635;-61
2021/03/06 10:58:48;;;;;;;4.20;1.62;;;;;;;4.69;100.00;100312.52;1758766;78;21570;-62
2021/03/06 11:01:19;;;;;;;3.10;1.40;;;;;;;4.81;100.00;100311.36;1761383;78;21108;-61
2021/03/06 11:03:49;;;;;;;3.65;1.30;;;;;;;4.92;100.00;100305.98;1761591;78;21120;-61
2021/03/06 11:06:18;;;;;;;4.00;1.90;;;;;;;5.10;100.00;100312.48;1768572;78;21144;-61
2021/03/06 11:09:03;;;;;;;5.42;2.05;;;;;;;5.27;100.00;100303.95;1763277;78;21629;-63
2021/03/06 11:11:33;;;;;;;4.47;1.82;;;;;;;5.43;96.25;100308.93;1763452;78;21052;-61
2021/03/06 11:14:01;;;;;;;4.50;1.57;;;;;;;5.52;90.16;100303.66;1760524;78;21177;-61
2021/03/06 11:16:38;;;;;;;3.65;1.30;;;;;;;5.61;91.46;100305.37;1767028;78;20981;-67
2021/03/06 11:19:07;;;;;;;3.70;1.65;;;;;;;5.79;91.74;100305.81;1762582;78;22108;-61
2021/03/06 11:21:36;;;;;;;4.28;1.72;;;;;;;5.98;88.48;100304.35;1766621;78;21136;-61
2021/03/06 11:24:06;;;;;;;4.43;1.33;;;;;;;6.12;83.93;100299.11;1760283;78;21139;-62
2021/03/06 11:26:36;;;;;;;4.30;1.70;;;;;;;6.17;77.04;100299.94;1758780;79;21636;-68
2021/03/06 11:29:04;;;;;;;2.87;1.20;;;;;;;6.15;72.12;100300.59;1759568;78;21799;-61
2021/03/06 11:31:34;;;;;;;3.12;1.22;;;;;;;6.16;73.09;100297.03;1756397;78;21813;-60
2021/03/06 11:34:03;;;;;;;3.10;1.20;;;;;;;6.22;71.66;100286.08;1762537;78;21163;-61
2021/03/06 11:36:32;;;;;;;3.10;1.10;;;;;;;6.34;71.96;100289.52;1767588;78;21370;-68
2021/03/06 11:39:00;;;;;;;2.93;1.07;;;;;;;6.39;68.14;100290.35;1761677;78;22593;-61
2021/03/06 11:41:29;;;;;;;3.75;1.22;;;;;;;6.31;66.79;100285.14;1766015;78;21763;-63
2021/03/06 11:44:00;;;;;;;4.03;1.50;;;;;;;6.16;68.38;100297.03;1731242;78;21198;-63
2021/03/06 11:46:28;;;;;;;3.67;1.37;;;;;;;6.03;66.21;100303.44;1758413;80;21304;-68
2021/03/06 11:48:57;;;;;;;2.37;0.90;;;;;;;5.81;66.71;100309.88;1758620;80;21353;-62
2021/03/06 11:51:26;;;;;;;3.67;1.40;;;;;;;5.58;64.60;100305.66;1757580;81;21135;-61
2021/03/06 11:53:54;;;;;;;3.92;2.00;;;;;;;5.35;57.60;100317.42;1754101;81;21115;-62
2021/03/06 11:56:23;;;;;;;5.67;2.55;;;;;;;5.15;54.53;100310.75;1754643;81;22098;-66
2021/03/06 11:58:52;;;;;;;6.05;3.00;;;;;;;5.05;52.78;100313.41;1757574;81;21009;-61
2021/03/06 12:01:20;;;;;;;5.87;2.47;;;;;;;4.94;53.10;100306.67;1727402;82;21043;-61
2021/03/06 12:03:49;;;;;;;10.48;5.35;;;;;;;4.88;53.78;100320.96;1750402;81;21040;-60
2021/03/06 12:06:17;;;;;;;3.98;1.70;;;;;;;4.81;53.78;100319.10;1746912;81;21188;-60
2021/03/06 12:08:46;;;;;;;4.53;1.98;;;;;;;4.74;53.13;100320.66;1748951;81;21211;-62
2021/03/06 12:11:15;;;;;;;6.22;2.10;;;;;;;4.72;54.46;100321.27;1748715;81;21200;-61
2021/03/06 12:13:43;;;;;;;6.58;2.22;;;;;;;4.74;56.20;100324.53;1748887;81;21151;-61
2021/03/06 12:16:13;;;;;;;7.17;1.98;;;;;;;4.77;54.47;100321.64;1760336;80;21547;-61
2021/03/06 12:18:42;;;;;;;2.83;1.07;;;;;;;4.79;54.42;100327.01;1773600;80;21092;-64
2021/03/06 12:21:11;;;;;;;6.87;2.85;;;;;;;4.76;54.23;100324.70;1728125;81;22529;-61
2021/03/06 12:23:40;;;;;;;5.50;2.22;;;;;;;4.74;58.25;100331.80;1728565;81;21097;-61
2021/03/06 12:26:09;;;;;;;5.53;2.00;;;;;;;4.73;56.40;100322.89;1756158;81;21543;-61
2021/03/06 12:28:38;;;;;;;5.97;2.08;;;;;;;4.70;59.23;100324.45;1755804;81;21563;-66
2021/03/06 12:31:06;;;;;;;8.10;3.20;;;;;;;4.74;62.96;100326.64;1756312;81;21615;-60
2021/03/06 12:33:34;;;;;;;4.40;1.80;;;;;;;4.85;62.85;100334.67;1755154;81;21373;-60
2021/03/06 12:36:04;;;;;;;4.33;1.82;;;;;;;4.92;63.25;100335.70;1730693;80;21646;-61
2021/03/06 12:38:32;;;;;;;4.55;1.80;;;;;;;4.90;58.13;100328.59;1755714;80;20938;-63
2021/03/06 12:41:02;;;;;;;10.35;3.85;;;;;;;4.77;59.70;100332.81;1756665;81;21064;-62
2021/03/06 12:43:30;;;;;;;5.97;2.90;;;;;;;4.69;59.19;100335.75;1755487;81;21159;-62
2021/03/06 12:45:59;;;;;;;8.50;5.47;;;;;;;4.61;59.80;100332.59;1723758;80;22500;-61
2021/03/06 12:48:27;;;;;;;9.90;4.62;;;;;;;4.55;60.68;100334.47;1730173;80;21144;-63
2021/03/06 12:50:56;;;;;;;5.70;2.72;;;;;;;4.58;62.12;100331.58;1760694;79;21732;-63
2021/03/06 12:53:25;;;;;;;6.70;2.65;;;;;;;4.58;63.51;100336.29;1758283;79;21602;-62
2021/03/06 12:55:53;;;;;;;3.50;1.40;;;;;;;4.50;61.95;100336.16;1758813;79;21583;-63
2021/03/06 12:58:21;;;;;;;5.33;1.60;;;;;;;4.40;62.07;100339.27;1756693;79;22156;-61
2021/03/06 13:00:51;;;;;;;7.92;5.05;;;;;;;4.25;62.72;100346.65;1764384;79;21551;-63
2021/03/06 13:03:20;;;;;;;6.87;3.85;;;;;;;4.12;63.47;100345.64;1758520;79;21227;-63
2021/03/06 13:05:49;;;;;;;7.17;2.92;;;;;;;4.04;65.67;100339.55;1761307;79;21656;-60
2021/03/06 13:08:18;;;;;;;4.20;1.92;;;;;;;3.90;65.83;100344.66;1752442;79;21075;-62
2021/03/06 13:10:46;;;;;;;6.87;2.90;;;;;;;3.72;66.23;100351.48;1723083;81;21611;-61
2021/03/06 13:13:15;;;;;;;3.67;1.62;;;;;;;3.60;70.91;100358.06;1759765;79;22716;-61
2021/03/06 13:15:43;;;;;;;3.87;1.95;;;;;;;3.53;73.18;100355.67;1762048;79;21598;-61
2021/03/06 13:18:12;;;;;;;3.15;1.22;;;;;;;3.53;73.86;100359.54;1758271;79;21607;-62
2021/03/06 13:20:40;;;;;;;4.28;1.75;;;;;;;3.57;74.72;100354.94;1757769;80;21492;-70
2021/03/06 13:23:08;;;;;;;3.62;1.60;;;;;;;3.69;69.84;100349.97;1757176;80;22911;-62
2021/03/06 13:25:40;;;;;;;3.52;1.40;;;;;;;3.83;72.72;100351.34;1753633;80;21154;-61
2021/03/06 13:28:10;;;;;;;3.80;1.45;;;;;;;4.08;70.95;100348.64;1757310;80;21587;-60
2021/03/06 13:30:39;;;;;;;4.53;1.90;;;;;;;4.29;67.62;100357.50;1763271;79;21587;-69
2021/03/06 13:33:09;;;;;;;6.87;3.95;;;;;;;4.36;68.25;100366.31;1757254;80;22457;-61
2021/03/06 13:35:38;;;;;;;10.23;5.25;;;;;;;4.35;63.61;100362.89;1756160;79;21391;-61
2021/03/06 13:38:07;;;;;;;5.80;2.60;;;;;;;4.35;63.08;100369.83;1760750;79;21148;-60
2021/03/06 13:40:35;;;;;;;4.22;2.10;;;;;;;4.26;59.58;100355.20;1756112;79;21157;-67
2021/03/06 13:43:04;;;;;;;3.92;1.65;;;;;;;4.08;65.12;100367.98;1731889;80;21571;-60
2021/03/06 13:45:32;;;;;;;5.30;1.82;;;;;;;3.96;73.88;100374.25;1753728;79;21624;-61
2021/03/06 13:48:06;;;;;;;3.55;1.65;;;;;;;3.86;77.86;100379.41;1753210;79;21486;-60
2021/03/06 13:50:35;;;;;;;5.08;2.30;;;;;;;3.75;79.73;100373.09;1759979;79;21156;-66
2021/03/06 13:53:04;;;;;;;6.30;2.83;;;;;;;3.66;82.99;100383.27;1761478;80;21171;-61
2021/03/06 13:55:33;;;;;;;8.00;3.12;;;;;;;3.65;85.54;100386.81;1760567;80;21992;-60
2021/03/06 13:58:01;;;;;;;5.70;2.70;;;;;;;3.69;86.27;100386.06;1756999;80;21112;-60
2021/03/06 14:00:30;;;;;;;3.85;1.60;;;;;;;3.70;83.46;100388.98;1757979;80;21365;-60
2021/03/06 14:02:59;;;;;;;3.65;1.95;;;;;;;3.56;86.74;100386.34;1752537;79;21073;-59
2021/03/06 14:05:28;;;;;;;4.58;1.60;;;;;;;3.32;88.91;100380.73;1728638;80;21220;-60
2021/03/06 14:07:56;;;;;;;6.53;2.60;;;;;;;3.05;93.27;100400.19;1755663;79;21203;-62
2021/03/06 14:10:27;;;;;;;5.95;1.90;;;;;;;2.83;97.79;100401.19;1757701;79;21582;-61
2021/03/06 14:12:55;;;;;;;5.92;2.50;;;;;;;2.63;98.05;100402.87;1758702;79;22640;-60
2021/03/06 14:15:24;;;;;;;4.05;1.90;;;;;;;2.41;98.37;100403.83;1759545;79;21182;-60
2021/03/06 14:17:54;;;;;;;3.47;1.47;;;;;;;2.24;98.68;100404.41;1757386;79;21048;-60
2021/03/06 14:20:24;;;;;;;3.92;1.70;;;;;;;2.10;99.40;100406.00;1760009;79;21167;-59
2021/03/06 14:22:53;;;;;;;3.72;1.60;;;;;;;1.99;100.00;100412.48;1758607;79;21160;-59
2021/03/06 14:25:23;;;;;;;5.15;1.85;;;;;;;1.87;100.00;100416.86;1751788;79;21394;-59
2021/03/06 14:27:52;;;;;;;2.62;1.50;;;;;;;1.72;100.00;100423.22;1758160;79;21559;-62
2021/03/06 14:30:21;;;;;;;5.65;2.02;;;;;;;1.54;100.00;100421.62;1758014;80;21559;-60
2021/03/06 14:32:49;;;;;;;8.68;5.20;;;;;;;1.34;100.00;100433.47;1760295;80;21176;-60
2021/03/06 14:35:17;;;;;;;11.15;4.90;;;;;;;1.16;100.00;100440.36;1759226;79;21450;-59
2021/03/06 14:37:46;;;;;;;6.40;2.55;;;;;;;1.00;100.00;100447.61;1760871;79;21224;-60
2021/03/06 14:40:15;;;;;;;4.12;1.80;;;;;;;0.83;100.00;100448.86;1756953;79;21599;-61
2021/03/06 14:42:45;;;;;;;5.70;2.45;;;;;;;0.65;100.00;100454.93;1757792;79;21192;-61
2021/03/06 14:45:14;;;;;;;3.35;1.70;;;;;;;0.49;100.00;100468.52;1755209;79;22035;-63
2021/03/06 14:47:42;;;;;;;3.80;2.02;;;;;;;0.36;100.00;100469.89;1733590;80;20993;-61
2021/03/06 14:50:12;;;;;;;5.80;2.30;;;;;;;0.23;100.00;100471.26;1732687;80;22576;-60
2021/03/06 14:52:42;;;;;;;5.22;2.62;;;;;;;0.09;100.00;100479.12;1731301;80;21092;-68
2021/03/06 14:55:12;;;;;;;3.95;1.90;;;;;;;-0.03;100.00;100480.00;1730710;80;21715;-59
2021/03/06 14:57:40;;;;;;;4.67;2.30;;;;;;;-0.15;100.00;100480.41;1738201;80;21092;-62
2021/03/06 15:00:11;;;;;;;8.95;3.45;;;;;;;-0.27;100.00;100482.06;1732136;80;21528;-61
2021/03/06 15:02:39;;;;;;;5.05;1.92;;;;;;;-0.41;100.00;100488.64;1741253;81;21205;-65
2021/03/06 15:05:09;;;;;;;5.60;2.00;;;;;;;-0.53;100.00;100493.31;1744275;82;21567;-61
2021/03/06 15:07:38;;;;;;;4.35;1.42;;;;;;;-0.63;100.00;100494.88;1742070;81;21859;-62
2021/03/06 15:10:09;;;;;;;4.10;1.72;;;;;;;-0.76;100.00;100508.96;1739306;81;20966;-61
2021/03/06 15:12:37;;;;;;;5.20;1.57;;;;;;;-0.87;100.00;100521.66;1735332;82;21555;-64
2021/03/06 15:15:08;;;;;;;5.17;1.92;;;;;;;-0.99;100.00;100512.61;1740193;82;21226;-60
2021/03/06 15:17:36;;;;;;;7.50;2.40;;;;;;;-1.10;100.00;100524.05;1768005;78;21151;-61
2021/03/06 15:20:07;;;;;;;5.92;2.55;;;;;;;-1.19;100.00;100534.86;1770123;78;21177;-59
2021/03/06 15:22:35;;;;;;;7.50;3.40;;;;;;;-1.29;100.00;100544.89;1731910;81;21132;-59
2021/03/06 15:25:04;;;;;;;7.00;3.22;;;;;;;-1.37;100.00;100550.94;1735172;81;21185;-60
2021/03/06 15:27:33;;;;;;;6.50;2.50;;;;;;;-1.46;100.00;100552.82;1728099;81;21212;-60
2021/03/06 15:30:02;;;;;;;6.47;2.98;;;;;;;-1.52;100.00;100555.75;1732055;81;20962;-69
2021/03/06 15:32:31;;;;;;;6.58;2.80;;;;;;;-1.61;100.00;100565.30;1728493;81;21090;-62
2021/03/06 15:35:01;;;;;;;6.35;2.25;;;;;;;-1.65;100.00;100565.95;1730990;81;21092;-61
2021/03/06 15:37:30;;;;;;;5.62;2.65;;;;;;;-1.69;100.00;100566.25;1730880;81;20973;-62
2021/03/06 15:39:59;;;;;;;4.75;2.25;;;;;;;-1.75;100.00;100568.25;1729683;81;21207;-68
2021/03/06 15:42:27;;;;;;;4.50;2.17;;;;;;;-1.79;100.00;100573.66;1730188;81;21587;-62
2021/03/06 15:44:56;;;;;;;6.50;2.70;;;;;;;-1.84;100.00;100576.51;1731286;81;21022;-62